sensor_id;sensor_type;location;lat;lon;timestamp;temperature;humidity
31735;DHT22;18313;48.518;9.124;2023-02-14T00:01:09;-0.70;99.90
31735;DHT22;18313;48.518;9.124;2023-02-14T00:03:37;-0.70;99.90
31735;DHT22;18313;48.518;9.124;2023-02-14T00:06:08;-0.70;99.90
31735;DHT22;18313;48.518;9.124;2023-02-14T00:08:36;-0.60;99.90
31735;DHT22;18313;48.518;9.124;2023-02-14T00:11:04;-0.60;99.90
31735;DHT22;18313;48.518;9.124;2023-02-14T00:13:32;-0.50;99.90
31735;DHT22;18313;48.518;9.124;2023-02-14T00:15:59;-0.60;99.90
31735;DHT22;18313;48.518;9.124;2023-02-14T00:18:26;-0.60;99.90
31735;DHT22;18313;48.518;9.124;2023-02-14T00:21:14;-0.60;99.90
31735;DHT22;18313;48.518;9.124;2023-02-14T00:23:42;-0.70;99.90
31735;DHT22;18313;48.518;9.124;2023-02-14T00:26:15;-0.70;99.90
31735;DHT22;18313;48.518;9.124;2023-02-14T00:28:42;-0.70;99.90
31735;DHT22;18313;48.518;9.124;2023-02-14T00:31:10;-0.80;99.90
31735;DHT22;18313;48.518;9.124;2023-02-14T00:33:37;-0.80;99.90
31735;DHT22;18313;48.518;9.124;2023-02-14T00:36:05;-0.80;99.90
31735;DHT22;18313;48.518;9.124;2023-02-14T00:38:34;-0.80;99.90
31735;DHT22;18313;48.518;9.124;2023-02-14T00:41:01;-0.80;99.90
31735;DHT22;18313;48.518;9.124;2023-02-14T00:43:29;-0.90;99.90
31735;DHT22;18313;48.518;9.124;2023-02-14T00:45:56;-0.90;99.90
31735;DHT22;18313;48.518;9.124;2023-02-14T00:48:23;-0.80;99.90
31735;DHT22;18313;48.518;9.124;2023-02-14T00:50:50;-0.80;99.90
31735;DHT22;18313;48.518;9.124;2023-02-14T00:53:17;-0.80;99.90
31735;DHT22;18313;48.518;9.124;2023-02-14T00:55:45;-0.80;99.90
31735;DHT22;18313;48.518;9.124;2023-02-14T00:58:13;-0.80;99.90
31735;DHT22;18313;48.518;9.124;2023-02-14T01:00:40;-0.80;99.90
31735;DHT22;18313;48.518;9.124;2023-02-14T01:03:07;-0.90;99.90
31735;DHT22;18313;48.518;9.124;2023-02-14T01:05:34;-0.90;99.90
31735;DHT22;18313;48.518;9.124;2023-02-14T01:08:01;-1.00;99.90
31735;DHT22;18313;48.518;9.124;2023-02-14T01:10:28;-1.00;99.90
31735;DHT22;18313;48.518;9.124;2023-02-14T01:12:55;-0.90;99.90
31735;DHT22;18313;48.518;9.124;2023-02-14T01:15:22;-1.00;99.90
31735;DHT22;18313;48.518;9.124;2023-02-14T01:17:50;-0.90;99.90
31735;DHT22;18313;48.518;9.124;2023-02-14T01:20:17;-0.90;99.90
31735;DHT22;18313;48.518;9.124;2023-02-14T01:22:44;-0.90;99.90
31735;DHT22;18313;48.518;9.124;2023-02-14T01:25:12;-1.00;99.90
31735;DHT22;18313;48.518;9.124;2023-02-14T01:27:39;-0.90;99.90
31735;DHT22;18313;48.518;9.124;2023-02-14T01:30:06;-0.90;99.90
31735;DHT22;18313;48.518;9.124;2023-02-14T01:32:34;-1.00;99.90
31735;DHT22;18313;48.518;9.124;2023-02-14T01:35:01;-1.00;99.90
31735;DHT22;18313;48.518;9.124;2023-02-14T01:37:28;-1.10;99.90
31735;DHT22;18313;48.518;9.124;2023-02-14T01:39:55;-1.20;99.90
31735;DHT22;18313;48.518;9.124;2023-02-14T01:42:22;-1.30;99.90
31735;DHT22;18313;48.518;9.124;2023-02-14T01:44:57;-1.30;99.90
31735;DHT22;18313;48.518;9.124;2023-02-14T01:47:26;-1.40;99.90
31735;DHT22;18313;48.518;9.124;2023-02-14T01:49:58;-1.50;99.90
31735;DHT22;18313;48.518;9.124;2023-02-14T01:52:41;-1.50;99.90
31735;DHT22;18313;48.518;9.124;2023-02-14T01:55:13;-1.50;99.90
31735;DHT22;18313;48.518;9.124;2023-02-14T01:57:54;-1.50;99.90
31735;DHT22;18313;48.518;9.124;2023-02-14T02:00:26;-1.40;99.90
31735;DHT22;18313;48.518;9.124;2023-02-14T02:03:13;-1.40;99.90
31735;DHT22;18313;48.518;9.124;2023-02-14T02:05:44;-1.30;99.90
31735;DHT22;18313;48.518;9.124;2023-02-14T02:08:13;-1.10;99.90
31735;DHT22;18313;48.518;9.124;2023-02-14T02:10:40;-1.20;99.90
31735;DHT22;18313;48.518;9.124;2023-02-14T02:13:13;-1.30;99.90
31735;DHT22;18313;48.518;9.124;2023-02-14T02:15:58;-1.30;99.90
31735;DHT22;18313;48.518;9.124;2023-02-14T02:27:20;-1.60;99.90
31735;DHT22;18313;48.518;9.124;2023-02-14T02:38:47;-1.50;99.90
31735;DHT22;18313;48.518;9.124;2023-02-14T02:41:20;-1.60;99.90
31735;DHT22;18313;48.518;9.124;2023-02-14T02:44:16;-1.60;99.90
31735;DHT22;18313;48.518;9.124;2023-02-14T02:53:38;-1.60;99.90
31735;DHT22;18313;48.518;9.124;2023-02-14T02:56:13;-1.60;99.90
31735;DHT22;18313;48.518;9.124;2023-02-14T02:59:07;-1.60;99.90
31735;DHT22;18313;48.518;9.124;2023-02-14T03:01:55;-1.70;99.90
31735;DHT22;18313;48.518;9.124;2023-02-14T03:04:25;-1.80;99.90
31735;DHT22;18313;48.518;9.124;2023-02-14T03:07:12;-1.80;99.90
31735;DHT22;18313;48.518;9.124;2023-02-14T03:10:00;-1.80;99.90
31735;DHT22;18313;48.518;9.124;2023-02-14T03:15:15;-1.90;99.90
31735;DHT22;18313;48.518;9.124;2023-02-14T03:24:18;-2.00;99.90
31735;DHT22;18313;48.518;9.124;2023-02-14T03:27:07;-2.00;99.90
31735;DHT22;18313;48.518;9.124;2023-02-14T03:32:59;-2.10;99.90
31735;DHT22;18313;48.518;9.124;2023-02-14T03:35:39;-2.10;99.90
31735;DHT22;18313;48.518;9.124;2023-02-14T03:38:18;-2.10;99.90
31735;DHT22;18313;48.518;9.124;2023-02-14T03:40:50;-2.00;99.90
31735;DHT22;18313;48.518;9.124;2023-02-14T03:43:29;-2.10;99.90
31735;DHT22;18313;48.518;9.124;2023-02-14T03:46:04;-2.10;99.90
31735;DHT22;18313;48.518;9.124;2023-02-14T03:48:34;-2.10;99.90
31735;DHT22;18313;48.518;9.124;2023-02-14T03:51:02;-2.20;99.90
31735;DHT22;18313;48.518;9.124;2023-02-14T03:53:33;-2.20;99.90
31735;DHT22;18313;48.518;9.124;2023-02-14T03:56:14;-2.00;99.90
31735;DHT22;18313;48.518;9.124;2023-02-14T03:58:50;-1.80;99.90
31735;DHT22;18313;48.518;9.124;2023-02-14T04:03:46;-1.90;99.90
31735;DHT22;18313;48.518;9.124;2023-02-14T04:06:17;-2.00;99.90
31735;DHT22;18313;48.518;9.124;2023-02-14T04:08:45;-2.10;99.90
31735;DHT22;18313;48.518;9.124;2023-02-14T04:11:12;-2.20;99.90
31735;DHT22;18313;48.518;9.124;2023-02-14T04:13:39;-2.20;99.90
31735;DHT22;18313;48.518;9.124;2023-02-14T04:16:07;-2.20;99.90
31735;DHT22;18313;48.518;9.124;2023-02-14T04:18:34;-2.20;99.90
31735;DHT22;18313;48.518;9.124;2023-02-14T04:21:19;-2.20;99.90
31735;DHT22;18313;48.518;9.124;2023-02-14T04:23:46;-2.20;99.90
31735;DHT22;18313;48.518;9.124;2023-02-14T04:26:13;-2.20;99.90
31735;DHT22;18313;48.518;9.124;2023-02-14T04:28:40;-2.10;99.90
31735;DHT22;18313;48.518;9.124;2023-02-14T04:31:08;-2.10;99.90
31735;DHT22;18313;48.518;9.124;2023-02-14T04:33:37;-2.10;99.90
31735;DHT22;18313;48.518;9.124;2023-02-14T04:36:05;-2.10;99.90
31735;DHT22;18313;48.518;9.124;2023-02-14T04:38:32;-2.30;99.90
31735;DHT22;18313;48.518;9.124;2023-02-14T04:40:59;-2.30;99.90
31735;DHT22;18313;48.518;9.124;2023-02-14T04:43:27;-2.40;99.90
31735;DHT22;18313;48.518;9.124;2023-02-14T04:45:54;-2.40;99.90
31735;DHT22;18313;48.518;9.124;2023-02-14T04:48:21;-2.40;99.90
31735;DHT22;18313;48.518;9.124;2023-02-14T04:50:52;-2.40;99.90
31735;DHT22;18313;48.518;9.124;2023-02-14T04:53:20;-2.40;99.90
31735;DHT22;18313;48.518;9.124;2023-02-14T04:55:48;-2.40;99.90
31735;DHT22;18313;48.518;9.124;2023-02-14T04:58:16;-2.50;99.90
31735;DHT22;18313;48.518;9.124;2023-02-14T05:00:44;-2.40;99.90
31735;DHT22;18313;48.518;9.124;2023-02-14T05:03:11;-2.40;99.90
31735;DHT22;18313;48.518;9.124;2023-02-14T05:05:38;-2.50;99.90
31735;DHT22;18313;48.518;9.124;2023-02-14T05:08:05;-2.50;99.90
31735;DHT22;18313;48.518;9.124;2023-02-14T05:10:32;-2.50;99.90
31735;DHT22;18313;48.518;9.124;2023-02-14T05:13:00;-2.50;99.90
31735;DHT22;18313;48.518;9.124;2023-02-14T05:15:27;-2.50;99.90
31735;DHT22;18313;48.518;9.124;2023-02-14T05:17:54;-2.50;99.90
31735;DHT22;18313;48.518;9.124;2023-02-14T05:20:22;-2.50;99.90
31735;DHT22;18313;48.518;9.124;2023-02-14T05:22:49;-2.60;99.90
31735;DHT22;18313;48.518;9.124;2023-02-14T05:25:16;-2.60;99.90
31735;DHT22;18313;48.518;9.124;2023-02-14T05:27:43;-2.70;99.90
31735;DHT22;18313;48.518;9.124;2023-02-14T05:30:11;-2.70;99.90
31735;DHT22;18313;48.518;9.124;2023-02-14T05:32:38;-2.80;99.90
31735;DHT22;18313;48.518;9.124;2023-02-14T05:35:05;-2.80;99.90
31735;DHT22;18313;48.518;9.124;2023-02-14T05:37:32;-2.90;99.90
31735;DHT22;18313;48.518;9.124;2023-02-14T05:39:59;-2.90;99.90
31735;DHT22;18313;48.518;9.124;2023-02-14T05:42:30;-2.80;99.90
31735;DHT22;18313;48.518;9.124;2023-02-14T05:44:57;-2.80;99.90
31735;DHT22;18313;48.518;9.124;2023-02-14T05:47:24;-2.80;99.90
31735;DHT22;18313;48.518;9.124;2023-02-14T05:49:51;-2.70;99.90
31735;DHT22;18313;48.518;9.124;2023-02-14T05:52:18;-2.70;99.90
31735;DHT22;18313;48.518;9.124;2023-02-14T05:54:45;-2.80;99.90
31735;DHT22;18313;48.518;9.124;2023-02-14T05:57:12;-2.80;99.90
31735;DHT22;18313;48.518;9.124;2023-02-14T05:59:39;-2.90;99.90
31735;DHT22;18313;48.518;9.124;2023-02-14T06:02:07;-2.80;99.90
31735;DHT22;18313;48.518;9.124;2023-02-14T06:04:34;-2.80;99.90
31735;DHT22;18313;48.518;9.124;2023-02-14T06:07:01;-2.70;99.90
31735;DHT22;18313;48.518;9.124;2023-02-14T06:09:28;-2.80;99.90
31735;DHT22;18313;48.518;9.124;2023-02-14T06:11:55;-2.80;99.90
31735;DHT22;18313;48.518;9.124;2023-02-14T06:14:23;-2.80;99.90
31735;DHT22;18313;48.518;9.124;2023-02-14T06:16:50;-2.80;99.90
31735;DHT22;18313;48.518;9.124;2023-02-14T06:19:17;-2.70;99.90
31735;DHT22;18313;48.518;9.124;2023-02-14T06:21:44;-2.70;99.90
31735;DHT22;18313;48.518;9.124;2023-02-14T06:24:11;-2.70;99.90
31735;DHT22;18313;48.518;9.124;2023-02-14T06:26:39;-2.70;99.90
31735;DHT22;18313;48.518;9.124;2023-02-14T06:29:06;-2.70;99.90
31735;DHT22;18313;48.518;9.124;2023-02-14T06:31:34;-2.60;99.90
31735;DHT22;18313;48.518;9.124;2023-02-14T06:34:01;-2.70;99.90
31735;DHT22;18313;48.518;9.124;2023-02-14T06:36:28;-2.70;99.90
31735;DHT22;18313;48.518;9.124;2023-02-14T06:38:55;-2.70;99.90
31735;DHT22;18313;48.518;9.124;2023-02-14T06:41:22;-2.70;99.90
31735;DHT22;18313;48.518;9.124;2023-02-14T06:43:49;-2.70;99.90
31735;DHT22;18313;48.518;9.124;2023-02-14T06:46:17;-2.70;99.90
31735;DHT22;18313;48.518;9.124;2023-02-14T06:48:44;-2.70;99.90
31735;DHT22;18313;48.518;9.124;2023-02-14T06:51:11;-2.70;99.90
31735;DHT22;18313;48.518;9.124;2023-02-14T06:53:39;-2.70;99.90
31735;DHT22;18313;48.518;9.124;2023-02-14T06:56:06;-2.70;99.90
31735;DHT22;18313;48.518;9.124;2023-02-14T06:58:33;-2.70;99.90
31735;DHT22;18313;48.518;9.124;2023-02-14T07:01:00;-2.70;99.90
31735;DHT22;18313;48.518;9.124;2023-02-14T07:03:28;-2.70;99.90
31735;DHT22;18313;48.518;9.124;2023-02-14T07:05:56;-2.50;99.90
31735;DHT22;18313;48.518;9.124;2023-02-14T07:08:23;-2.30;99.90
31735;DHT22;18313;48.518;9.124;2023-02-14T07:10:55;-2.30;99.90
31735;DHT22;18313;48.518;9.124;2023-02-14T07:13:24;-2.20;99.90
31735;DHT22;18313;48.518;9.124;2023-02-14T07:15:51;-2.30;99.90
31735;DHT22;18313;48.518;9.124;2023-02-14T07:18:18;-2.30;99.90
31735;DHT22;18313;48.518;9.124;2023-02-14T07:20:45;-2.30;99.90
31735;DHT22;18313;48.518;9.124;2023-02-14T07:23:12;-2.30;99.90
31735;DHT22;18313;48.518;9.124;2023-02-14T07:25:39;-2.30;99.90
31735;DHT22;18313;48.518;9.124;2023-02-14T07:28:06;-2.20;99.90
31735;DHT22;18313;48.518;9.124;2023-02-14T07:30:34;-2.20;99.90
31735;DHT22;18313;48.518;9.124;2023-02-14T07:33:01;-2.20;99.90
31735;DHT22;18313;48.518;9.124;2023-02-14T07:35:28;-2.20;99.90
31735;DHT22;18313;48.518;9.124;2023-02-14T07:37:55;-2.20;99.90
31735;DHT22;18313;48.518;9.124;2023-02-14T07:40:22;-2.10;99.90
31735;DHT22;18313;48.518;9.124;2023-02-14T07:42:55;-2.10;99.90
31735;DHT22;18313;48.518;9.124;2023-02-14T07:45:23;-2.00;99.90
31735;DHT22;18313;48.518;9.124;2023-02-14T07:47:52;-2.00;99.90
31735;DHT22;18313;48.518;9.124;2023-02-14T07:50:21;-1.80;99.90
31735;DHT22;18313;48.518;9.124;2023-02-14T07:52:49;-1.80;99.90
31735;DHT22;18313;48.518;9.124;2023-02-14T07:55:16;-1.80;99.90
31735;DHT22;18313;48.518;9.124;2023-02-14T07:57:47;-1.70;99.90
31735;DHT22;18313;48.518;9.124;2023-02-14T08:00:14;-1.60;99.90
31735;DHT22;18313;48.518;9.124;2023-02-14T08:02:41;-1.60;99.90
31735;DHT22;18313;48.518;9.124;2023-02-14T08:05:09;-1.60;99.90
31735;DHT22;18313;48.518;9.124;2023-02-14T08:07:36;-1.50;99.90
31735;DHT22;18313;48.518;9.124;2023-02-14T08:10:04;-1.50;99.90
31735;DHT22;18313;48.518;9.124;2023-02-14T08:12:31;-1.40;99.90
31735;DHT22;18313;48.518;9.124;2023-02-14T08:15:17;-1.30;99.90
31735;DHT22;18313;48.518;9.124;2023-02-14T08:18:03;-1.20;99.90
31735;DHT22;18313;48.518;9.124;2023-02-14T08:20:30;-1.10;99.90
31735;DHT22;18313;48.518;9.124;2023-02-14T08:22:57;-1.00;99.90
31735;DHT22;18313;48.518;9.124;2023-02-14T08:25:24;-0.80;99.90
31735;DHT22;18313;48.518;9.124;2023-02-14T08:27:52;-0.60;99.90
31735;DHT22;18313;48.518;9.124;2023-02-14T08:30:21;-0.50;99.90
31735;DHT22;18313;48.518;9.124;2023-02-14T08:32:49;-0.30;99.90
31735;DHT22;18313;48.518;9.124;2023-02-14T08:35:16;0.00;99.90
31735;DHT22;18313;48.518;9.124;2023-02-14T08:37:44;0.30;99.90
31735;DHT22;18313;48.518;9.124;2023-02-14T08:40:11;0.50;99.90
31735;DHT22;18313;48.518;9.124;2023-02-14T08:42:38;0.90;99.90
31735;DHT22;18313;48.518;9.124;2023-02-14T08:45:06;1.30;99.90
31735;DHT22;18313;48.518;9.124;2023-02-14T08:47:33;1.70;99.90
31735;DHT22;18313;48.518;9.124;2023-02-14T08:50:05;2.10;99.90
31735;DHT22;18313;48.518;9.124;2023-02-14T08:52:32;2.40;99.90
31735;DHT22;18313;48.518;9.124;2023-02-14T08:55:00;2.70;99.90
31735;DHT22;18313;48.518;9.124;2023-02-14T08:57:28;2.90;99.90
31735;DHT22;18313;48.518;9.124;2023-02-14T08:59:55;3.10;99.90
31735;DHT22;18313;48.518;9.124;2023-02-14T09:02:23;3.30;99.90
31735;DHT22;18313;48.518;9.124;2023-02-14T09:04:50;3.50;99.90
31735;DHT22;18313;48.518;9.124;2023-02-14T09:07:17;3.70;99.90
31735;DHT22;18313;48.518;9.124;2023-02-14T09:09:45;3.70;99.90
31735;DHT22;18313;48.518;9.124;2023-02-14T09:12:12;3.80;99.90
31735;DHT22;18313;48.518;9.124;2023-02-14T09:14:41;3.90;99.90
31735;DHT22;18313;48.518;9.124;2023-02-14T09:17:12;4.10;99.90
31735;DHT22;18313;48.518;9.124;2023-02-14T09:19:40;4.40;99.90
31735;DHT22;18313;48.518;9.124;2023-02-14T09:22:08;4.50;99.90
31735;DHT22;18313;48.518;9.124;2023-02-14T09:24:37;4.60;99.90
31735;DHT22;18313;48.518;9.124;2023-02-14T09:27:45;4.70;99.90
31735;DHT22;18313;48.518;9.124;2023-02-14T09:30:12;4.90;99.90
31735;DHT22;18313;48.518;9.124;2023-02-14T09:32:40;5.10;99.90
31735;DHT22;18313;48.518;9.124;2023-02-14T09:35:07;5.20;99.90
31735;DHT22;18313;48.518;9.124;2023-02-14T09:37:35;5.50;99.90
31735;DHT22;18313;48.518;9.124;2023-02-14T09:40:21;5.60;99.90
31735;DHT22;18313;48.518;9.124;2023-02-14T09:43:15;5.80;99.90
31735;DHT22;18313;48.518;9.124;2023-02-14T09:45:51;6.00;99.90
31735;DHT22;18313;48.518;9.124;2023-02-14T09:48:40;6.20;99.90
31735;DHT22;18313;48.518;9.124;2023-02-14T09:51:30;6.30;99.90
31735;DHT22;18313;48.518;9.124;2023-02-14T09:54:11;6.50;99.90
31735;DHT22;18313;48.518;9.124;2023-02-14T09:57:02;6.60;99.90
31735;DHT22;18313;48.518;9.124;2023-02-14T10:02:32;6.80;99.90
31735;DHT22;18313;48.518;9.124;2023-02-14T10:05:28;7.00;99.90
31735;DHT22;18313;48.518;9.124;2023-02-14T10:08:03;7.20;99.90
31735;DHT22;18313;48.518;9.124;2023-02-14T10:10:40;7.40;99.90
31735;DHT22;18313;48.518;9.124;2023-02-14T10:13:37;7.50;99.90
31735;DHT22;18313;48.518;9.124;2023-02-14T10:19:17;7.90;99.90
31735;DHT22;18313;48.518;9.124;2023-02-14T10:21:54;7.40;99.90
31735;DHT22;18313;48.518;9.124;2023-02-14T10:27:30;7.70;99.90
31735;DHT22;18313;48.518;9.124;2023-02-14T10:29:59;7.60;99.90
31735;DHT22;18313;48.518;9.124;2023-02-14T10:32:36;7.80;99.90
31735;DHT22;18313;48.518;9.124;2023-02-14T10:35:26;7.80;99.90
31735;DHT22;18313;48.518;9.124;2023-02-14T10:38:15;7.80;99.90
31735;DHT22;18313;48.518;9.124;2023-02-14T10:44:12;7.90;99.90
31735;DHT22;18313;48.518;9.124;2023-02-14T10:49:48;7.80;99.90
31735;DHT22;18313;48.518;9.124;2023-02-14T10:52:39;7.30;99.90
31735;DHT22;18313;48.518;9.124;2023-02-14T10:58:15;7.70;99.90
31735;DHT22;18313;48.518;9.124;2023-02-14T11:01:00;7.90;99.90
31735;DHT22;18313;48.518;9.124;2023-02-14T11:03:29;8.10;99.90
31735;DHT22;18313;48.518;9.124;2023-02-14T11:05:56;8.20;99.90
31735;DHT22;18313;48.518;9.124;2023-02-14T11:08:27;8.50;99.90
31735;DHT22;18313;48.518;9.124;2023-02-14T11:11:01;8.80;99.90
31735;DHT22;18313;48.518;9.124;2023-02-14T11:13:34;8.80;99.90
31735;DHT22;18313;48.518;9.124;2023-02-14T11:16:05;8.80;99.90
31735;DHT22;18313;48.518;9.124;2023-02-14T11:18:33;8.50;99.90
31735;DHT22;18313;48.518;9.124;2023-02-14T11:21:09;8.60;99.90
31735;DHT22;18313;48.518;9.124;2023-02-14T11:23:45;8.90;99.90
31735;DHT22;18313;48.518;9.124;2023-02-14T11:26:29;9.20;99.90
31735;DHT22;18313;48.518;9.124;2023-02-14T11:29:13;9.50;99.90
31735;DHT22;18313;48.518;9.124;2023-02-14T11:31:41;9.50;99.90
31735;DHT22;18313;48.518;9.124;2023-02-14T11:34:38;9.50;99.90
31735;DHT22;18313;48.518;9.124;2023-02-14T11:37:25;9.60;99.90
31735;DHT22;18313;48.518;9.124;2023-02-14T11:39:54;9.70;99.90
31735;DHT22;18313;48.518;9.124;2023-02-14T11:42:40;9.60;99.90
31735;DHT22;18313;48.518;9.124;2023-02-14T11:45:27;9.90;99.90
31735;DHT22;18313;48.518;9.124;2023-02-14T11:50:56;9.70;99.90
31735;DHT22;18313;48.518;9.124;2023-02-14T11:53:26;9.70;99.90
31735;DHT22;18313;48.518;9.124;2023-02-14T11:55:56;9.80;99.90
31735;DHT22;18313;48.518;9.124;2023-02-14T11:58:34;10.10;99.90
31735;DHT22;18313;48.518;9.124;2023-02-14T12:01:03;10.40;99.90
31735;DHT22;18313;48.518;9.124;2023-02-14T12:03:51;10.50;99.90
31735;DHT22;18313;48.518;9.124;2023-02-14T12:06:27;10.60;99.90
31735;DHT22;18313;48.518;9.124;2023-02-14T12:09:24;10.80;99.90
31735;DHT22;18313;48.518;9.124;2023-02-14T12:12:13;11.00;99.60
31735;DHT22;18313;48.518;9.124;2023-02-14T12:14:42;11.10;99.30
31735;DHT22;18313;48.518;9.124;2023-02-14T12:17:27;10.90;99.90
31735;DHT22;18313;48.518;9.124;2023-02-14T12:20:14;11.20;99.90
31735;DHT22;18313;48.518;9.124;2023-02-14T12:22:47;11.40;99.00
31735;DHT22;18313;48.518;9.124;2023-02-14T12:25:24;11.30;98.90
31735;DHT22;18313;48.518;9.124;2023-02-14T12:28:01;11.60;98.80
31735;DHT22;18313;48.518;9.124;2023-02-14T12:30:32;11.40;98.50
31735;DHT22;18313;48.518;9.124;2023-02-14T12:33:00;11.50;98.30
31735;DHT22;18313;48.518;9.124;2023-02-14T12:36:03;11.60;97.30
31735;DHT22;18313;48.518;9.124;2023-02-14T12:41:29;11.60;98.00
31735;DHT22;18313;48.518;9.124;2023-02-14T12:47:03;12.30;97.00
31735;DHT22;18313;48.518;9.124;2023-02-14T12:50:33;12.00;96.80
31735;DHT22;18313;48.518;9.124;2023-02-14T12:55:45;11.80;97.00
31735;DHT22;18313;48.518;9.124;2023-02-14T12:58:41;11.70;96.60
31735;DHT22;18313;48.518;9.124;2023-02-14T13:09:56;12.50;95.20
31735;DHT22;18313;48.518;9.124;2023-02-14T13:12:34;12.70;95.10
31735;DHT22;18313;48.518;9.124;2023-02-14T13:20:50;12.80;94.80
31735;DHT22;18313;48.518;9.124;2023-02-14T13:23:23;12.80;94.90
31735;DHT22;18313;48.518;9.124;2023-02-14T13:26:13;12.80;95.20
31735;DHT22;18313;48.518;9.124;2023-02-14T13:28:50;12.50;96.00
31735;DHT22;18313;48.518;9.124;2023-02-14T13:31:19;12.50;96.00
31735;DHT22;18313;48.518;9.124;2023-02-14T13:33:54;12.50;96.60
31735;DHT22;18313;48.518;9.124;2023-02-14T13:36:23;12.50;95.70
31735;DHT22;18313;48.518;9.124;2023-02-14T13:38:53;12.50;96.70
31735;DHT22;18313;48.518;9.124;2023-02-14T13:41:27;12.60;96.10
31735;DHT22;18313;48.518;9.124;2023-02-14T13:44:01;12.90;96.40
31735;DHT22;18313;48.518;9.124;2023-02-14T13:49:02;13.40;96.10
31735;DHT22;18313;48.518;9.124;2023-02-14T13:51:48;13.70;96.10
31735;DHT22;18313;48.518;9.124;2023-02-14T13:56:57;14.30;95.30
31735;DHT22;18313;48.518;9.124;2023-02-14T13:59:34;14.10;95.30
31735;DHT22;18313;48.518;9.124;2023-02-14T14:04:56;13.60;94.80
31735;DHT22;18313;48.518;9.124;2023-02-14T14:07:26;13.10;95.40
31735;DHT22;18313;48.518;9.124;2023-02-14T14:09:58;13.00;95.20
31735;DHT22;18313;48.518;9.124;2023-02-14T14:17:32;12.80;95.90
31735;DHT22;18313;48.518;9.124;2023-02-14T14:20:01;12.60;96.40
31735;DHT22;18313;48.518;9.124;2023-02-14T14:22:30;13.00;96.60
31735;DHT22;18313;48.518;9.124;2023-02-14T14:25:02;13.20;95.60
31735;DHT22;18313;48.518;9.124;2023-02-14T14:27:34;13.50;96.30
31735;DHT22;18313;48.518;9.124;2023-02-14T14:30:05;13.90;97.00
31735;DHT22;18313;48.518;9.124;2023-02-14T14:32:37;13.90;95.20
31735;DHT22;18313;48.518;9.124;2023-02-14T14:35:06;13.90;95.10
31735;DHT22;18313;48.518;9.124;2023-02-14T14:37:36;13.80;94.70
31735;DHT22;18313;48.518;9.124;2023-02-14T14:40:29;13.60;95.20
31735;DHT22;18313;48.518;9.124;2023-02-14T14:45:50;13.40;95.60
31735;DHT22;18313;48.518;9.124;2023-02-14T14:50:58;14.00;96.10
31735;DHT22;18313;48.518;9.124;2023-02-14T14:53:36;14.00;94.80
31735;DHT22;18313;48.518;9.124;2023-02-14T14:56:12;13.70;94.80
31735;DHT22;18313;48.518;9.124;2023-02-14T14:58:40;13.30;95.60
31735;DHT22;18313;48.518;9.124;2023-02-14T15:01:12;13.20;95.90
31735;DHT22;18313;48.518;9.124;2023-02-14T15:03:47;13.30;95.30
31735;DHT22;18313;48.518;9.124;2023-02-14T15:06:16;13.20;95.10
31735;DHT22;18313;48.518;9.124;2023-02-14T15:08:45;13.00;96.00
31735;DHT22;18313;48.518;9.124;2023-02-14T15:11:19;13.20;96.00
31735;DHT22;18313;48.518;9.124;2023-02-14T15:14:14;13.20;95.80
31735;DHT22;18313;48.518;9.124;2023-02-14T15:16:48;13.20;95.90
31735;DHT22;18313;48.518;9.124;2023-02-14T15:21:44;12.90;95.60
31735;DHT22;18313;48.518;9.124;2023-02-14T15:24:13;13.00;96.50
31735;DHT22;18313;48.518;9.124;2023-02-14T15:26:44;13.10;96.00
31735;DHT22;18313;48.518;9.124;2023-02-14T15:31:47;13.20;96.10
31735;DHT22;18313;48.518;9.124;2023-02-14T15:34:17;13.10;96.20
31735;DHT22;18313;48.518;9.124;2023-02-14T15:36:45;13.10;96.00
31735;DHT22;18313;48.518;9.124;2023-02-14T15:39:21;13.00;95.60
31735;DHT22;18313;48.518;9.124;2023-02-14T15:41:52;12.90;95.60
31735;DHT22;18313;48.518;9.124;2023-02-14T15:44:22;13.00;96.30
31735;DHT22;18313;48.518;9.124;2023-02-14T15:47:00;13.10;96.50
31735;DHT22;18313;48.518;9.124;2023-02-14T15:49:35;13.20;95.50
31735;DHT22;18313;48.518;9.124;2023-02-14T15:52:04;13.20;95.70
31735;DHT22;18313;48.518;9.124;2023-02-14T15:54:43;13.10;95.70
31735;DHT22;18313;48.518;9.124;2023-02-14T15:57:26;13.00;95.60
31735;DHT22;18313;48.518;9.124;2023-02-14T15:59:55;13.00;95.70
31735;DHT22;18313;48.518;9.124;2023-02-14T16:02:34;12.90;94.90
31735;DHT22;18313;48.518;9.124;2023-02-14T16:05:23;12.60;95.30
31735;DHT22;18313;48.518;9.124;2023-02-14T16:08:01;12.60;95.00
31735;DHT22;18313;48.518;9.124;2023-02-14T16:10:33;12.60;95.10
31735;DHT22;18313;48.518;9.124;2023-02-14T16:15:56;12.20;95.60
31735;DHT22;18313;48.518;9.124;2023-02-14T16:21:25;11.90;95.80
31735;DHT22;18313;48.518;9.124;2023-02-14T16:26:50;11.60;96.20
31735;DHT22;18313;48.518;9.124;2023-02-14T16:29:18;11.50;96.70
31735;DHT22;18313;48.518;9.124;2023-02-14T16:31:53;11.40;96.70
31735;DHT22;18313;48.518;9.124;2023-02-14T16:34:41;11.20;96.90
31735;DHT22;18313;48.518;9.124;2023-02-14T16:37:20;11.00;97.20
31735;DHT22;18313;48.518;9.124;2023-02-14T16:39:52;10.80;97.20
31735;DHT22;18313;48.518;9.124;2023-02-14T16:42:20;10.80;97.50
31735;DHT22;18313;48.518;9.124;2023-02-14T16:44:47;10.60;97.60
31735;DHT22;18313;48.518;9.124;2023-02-14T16:47:17;10.40;97.90
31735;DHT22;18313;48.518;9.124;2023-02-14T16:49:44;10.30;98.00
31735;DHT22;18313;48.518;9.124;2023-02-14T16:52:14;10.30;98.30
31735;DHT22;18313;48.518;9.124;2023-02-14T16:54:43;10.10;98.40
31735;DHT22;18313;48.518;9.124;2023-02-14T16:57:17;10.10;98.60
31735;DHT22;18313;48.518;9.124;2023-02-14T16:59:46;10.10;98.90
31735;DHT22;18313;48.518;9.124;2023-02-14T17:02:13;9.90;98.90
31735;DHT22;18313;48.518;9.124;2023-02-14T17:04:41;9.80;99.20
31735;DHT22;18313;48.518;9.124;2023-02-14T17:07:08;9.80;99.40
31735;DHT22;18313;48.518;9.124;2023-02-14T17:09:39;9.70;99.40
31735;DHT22;18313;48.518;9.124;2023-02-14T17:12:12;9.70;99.60
31735;DHT22;18313;48.518;9.124;2023-02-14T17:14:45;9.60;99.80
31735;DHT22;18313;48.518;9.124;2023-02-14T17:17:14;9.50;99.90
31735;DHT22;18313;48.518;9.124;2023-02-14T17:19:42;9.40;99.90
31735;DHT22;18313;48.518;9.124;2023-02-14T17:22:11;9.30;99.90
31735;DHT22;18313;48.518;9.124;2023-02-14T17:24:40;9.20;99.90
31735;DHT22;18313;48.518;9.124;2023-02-14T17:27:07;9.20;99.90
31735;DHT22;18313;48.518;9.124;2023-02-14T17:29:34;9.20;99.90
31735;DHT22;18313;48.518;9.124;2023-02-14T17:32:01;9.10;99.90
31735;DHT22;18313;48.518;9.124;2023-02-14T17:34:32;8.90;99.90
31735;DHT22;18313;48.518;9.124;2023-02-14T17:36:59;8.70;99.90
31735;DHT22;18313;48.518;9.124;2023-02-14T17:39:28;8.70;99.90
31735;DHT22;18313;48.518;9.124;2023-02-14T17:41:55;8.60;99.90
31735;DHT22;18313;48.518;9.124;2023-02-14T17:44:22;8.50;99.90
31735;DHT22;18313;48.518;9.124;2023-02-14T17:46:49;8.40;99.90
31735;DHT22;18313;48.518;9.124;2023-02-14T17:49:16;8.40;99.90
31735;DHT22;18313;48.518;9.124;2023-02-14T17:51:43;8.30;99.90
31735;DHT22;18313;48.518;9.124;2023-02-14T17:54:10;8.20;99.90
31735;DHT22;18313;48.518;9.124;2023-02-14T17:56:38;8.10;99.90
31735;DHT22;18313;48.518;9.124;2023-02-14T17:59:05;8.10;99.90
31735;DHT22;18313;48.518;9.124;2023-02-14T18:01:32;8.00;99.90